createdAt,value
2022-10-04T00:01:59.337Z,9.05
2022-10-04T00:04:28.628Z,9.82
2022-10-04T00:06:59.729Z,9.40
2022-10-04T00:09:33.376Z,10.48
2022-10-04T00:12:01.837Z,10.07
2022-10-04T00:14:31.495Z,12.00
2022-10-04T00:16:59.940Z,9.48
2022-10-04T00:19:40.781Z,10.65
2022-10-04T00:22:26.139Z,11.23
2022-10-04T00:25:22.790Z,10.40
2022-10-04T00:28:30.061Z,11.32
2022-10-04T00:31:23.349Z,12.00
2022-10-04T00:33:53.732Z,13.80
2022-10-04T00:36:49.449Z,13.30
2022-10-04T00:39:27.173Z,9.85
2022-10-04T00:42:12.807Z,10.73
2022-10-04T00:44:45.628Z,12.43
2022-10-04T00:47:23.957Z,10.25
2022-10-04T00:49:57.090Z,11.70
2022-10-04T00:52:27.723Z,10.80
2022-10-04T00:54:58.595Z,10.23
2022-10-04T00:57:29.816Z,11.88
2022-10-04T00:59:59.765Z,12.18
2022-10-04T01:02:30.726Z,10.25
2022-10-04T01:05:00.656Z,12.33
2022-10-04T01:07:30.394Z,12.02
2022-10-04T01:10:01.422Z,11.32
2022-10-04T01:12:44.706Z,10.43
2022-10-04T01:15:16.106Z,10.25
2022-10-04T01:18:09.288Z,11.10
2022-10-04T01:20:39.450Z,10.15
2022-10-04T01:23:10.603Z,9.98
2022-10-04T01:25:47.442Z,9.52
2022-10-04T01:28:15.423Z,9.00
2022-10-04T01:30:43.565Z,10.57
2022-10-04T01:33:13.389Z,11.50
2022-10-04T01:35:41.327Z,13.30
2022-10-04T01:38:10.405Z,12.73
2022-10-04T01:40:43.929Z,12.27
2022-10-04T01:43:13.714Z,10.95
2022-10-04T01:45:45.309Z,14.13
2022-10-04T01:48:16.099Z,10.75
2022-10-04T01:50:45.902Z,10.52
2022-10-04T01:53:20.973Z,12.23
2022-10-04T01:55:51.431Z,10.98
2022-10-04T01:58:21.821Z,11.80
2022-10-04T02:00:54.600Z,11.30
2022-10-04T02:03:25.389Z,10.70
2022-10-04T02:05:55.465Z,11.20
2022-10-04T02:08:30.722Z,9.87
2022-10-04T02:10:58.848Z,10.03
2022-10-04T02:13:29.461Z,11.47
2022-10-04T02:15:57.420Z,9.95
2022-10-04T02:18:25.584Z,12.05
2022-10-04T02:20:53.531Z,10.73
2022-10-04T02:23:21.811Z,11.63
2022-10-04T02:25:51.061Z,12.13
2022-10-04T02:28:19.252Z,11.38
2022-10-04T02:31:09.362Z,13.00
2022-10-04T02:33:40.264Z,10.38
2022-10-04T02:36:09.407Z,10.38
2022-10-04T02:38:39.062Z,10.48
2022-10-04T02:41:13.710Z,12.82
2022-10-04T02:43:47.271Z,13.18
2022-10-04T02:46:16.838Z,13.43
2022-10-04T02:48:48.397Z,11.40
2022-10-04T02:51:20.959Z,12.07
2022-10-04T02:53:54.702Z,11.25
2022-10-04T02:56:25.953Z,10.98
2022-10-04T02:58:54.309Z,12.10
2022-10-04T03:01:29.509Z,11.45
2022-10-04T03:03:58.496Z,10.35
2022-10-04T03:06:32.383Z,10.53
2022-10-04T03:09:02.437Z,10.77
2022-10-04T03:11:35.377Z,10.02
2022-10-04T03:14:05.261Z,9.48
2022-10-04T03:16:36.249Z,11.50
2022-10-04T03:19:04.286Z,14.27
2022-10-04T03:21:33.078Z,12.45
2022-10-04T03:24:01.840Z,12.07
2022-10-04T03:26:37.199Z,11.77
2022-10-04T03:29:09.501Z,10.18
2022-10-04T03:31:40.900Z,10.95
2022-10-04T03:34:15.042Z,11.32
2022-10-04T03:36:42.913Z,11.00
2022-10-04T03:39:12.217Z,12.07
2022-10-04T03:41:42.327Z,12.00
2022-10-04T03:44:16.277Z,10.73
2022-10-04T03:46:45.362Z,10.40
2022-10-04T03:49:13.959Z,12.33
2022-10-04T03:51:45.406Z,11.75
2022-10-04T03:54:17.921Z,11.40
2022-10-04T03:56:47.005Z,13.77
2022-10-04T03:59:17.866Z,11.93
2022-10-04T04:01:48.100Z,9.57
2022-10-04T04:04:20.465Z,12.18
2022-10-04T04:06:53.618Z,10.77
2022-10-04T04:09:25.261Z,11.63
2022-10-04T04:11:56.097Z,10.45
2022-10-04T04:14:26.216Z,10.95
2022-10-04T04:16:54.548Z,12.82
2022-10-04T04:19:24.795Z,11.38
2022-10-04T04:21:54.784Z,10.45
2022-10-04T04:24:26.232Z,9.75
2022-10-04T04:26:59.447Z,10.88
2022-10-04T04:29:32.265Z,10.10
2022-10-04T04:32:02.440Z,10.52
2022-10-04T04:34:33.162Z,10.32
2022-10-04T04:37:01.860Z,13.18
2022-10-04T04:39:37.488Z,10.73
2022-10-04T04:42:12.925Z,12.30
2022-10-04T04:44:48.207Z,10.88
2022-10-04T04:47:26.954Z,12.45
2022-10-04T04:49:55.113Z,10.82
2022-10-04T04:52:27.039Z,11.45
2022-10-04T04:54:55.826Z,10.77
2022-10-04T04:57:25.008Z,12.90
2022-10-04T04:59:57.089Z,9.80
2022-10-04T05:02:33.120Z,9.98
2022-10-04T05:05:17.861Z,11.13
2022-10-04T05:07:45.711Z,11.20
2022-10-04T05:10:30.463Z,9.70
2022-10-04T05:13:00.903Z,12.73
2022-10-04T05:15:29.799Z,11.70
2022-10-04T05:17:57.456Z,8.93
2022-10-04T05:20:26.292Z,9.23
2022-10-04T05:22:55.060Z,9.70
2022-10-04T05:25:27.998Z,9.40
2022-10-04T05:27:56.739Z,10.52
2022-10-04T05:30:39.038Z,11.15
2022-10-04T05:33:08.830Z,9.13
2022-10-04T05:35:45.089Z,9.57
2022-10-04T05:38:16.752Z,10.10
2022-10-04T05:40:49.174Z,10.93
2022-10-04T05:43:27.628Z,8.57
2022-10-04T05:46:19.593Z,9.40
2022-10-04T05:48:48.489Z,8.10
2022-10-04T05:51:20.661Z,11.07
2022-10-04T05:53:49.899Z,10.30
2022-10-04T05:56:41.187Z,11.07
2022-10-04T05:59:16.880Z,9.90
2022-10-04T06:01:51.744Z,10.23
2022-10-04T06:04:48.437Z,10.43
2022-10-04T06:07:23.290Z,8.85
2022-10-04T06:10:07.108Z,9.10
2022-10-04T06:12:44.661Z,10.18
2022-10-04T06:15:32.809Z,9.75
2022-10-04T06:18:22.810Z,9.10
2022-10-04T06:21:21.441Z,10.05
2022-10-04T06:23:54.321Z,9.65
2022-10-04T06:26:25.051Z,10.23
2022-10-04T06:28:57.021Z,9.75
2022-10-04T06:31:49.584Z,9.13
2022-10-04T06:34:49.688Z,10.02
2022-10-04T06:37:29.507Z,10.80
2022-10-04T06:40:20.060Z,11.23
2022-10-04T06:42:59.569Z,10.50
2022-10-04T06:45:36.631Z,10.80
2022-10-04T06:48:20.242Z,10.43
2022-10-04T06:50:51.711Z,13.32
2022-10-04T06:53:27.668Z,11.82
2022-10-04T06:56:20.580Z,11.05
2022-10-04T06:59:13.714Z,11.93
2022-10-04T07:01:49.911Z,10.27
2022-10-04T07:04:26.553Z,11.45
2022-10-04T07:07:24.781Z,12.50
2022-10-04T07:09:55.622Z,9.83
2022-10-04T07:12:23.946Z,9.73
2022-10-04T07:14:53.975Z,10.23
2022-10-04T07:17:25.513Z,9.68
2022-10-04T07:19:53.733Z,9.93
2022-10-04T07:22:28.594Z,9.23
2022-10-04T07:25:06.594Z,9.80
2022-10-04T07:27:36.394Z,10.60
2022-10-04T07:30:06.838Z,10.48
2022-10-04T07:32:38.822Z,11.90
2022-10-04T07:35:16.808Z,10.23
2022-10-04T07:37:51.371Z,10.50
2022-10-04T07:40:24.078Z,10.15
2022-10-04T07:42:54.960Z,8.63
2022-10-04T07:45:29.148Z,8.65
2022-10-04T07:48:05.451Z,10.75
2022-10-04T07:50:37.903Z,10.47
2022-10-04T07:53:10.921Z,8.40
2022-10-04T07:55:49.245Z,7.97
2022-10-04T07:58:24.667Z,9.27
2022-10-04T08:00:56.473Z,8.32
2022-10-04T08:03:58.290Z,12.02
2022-10-04T08:06:34.038Z,10.70
2022-10-04T08:09:24.939Z,10.23
2022-10-04T08:12:01.664Z,9.13
2022-10-04T08:14:41.104Z,8.23
2022-10-04T08:17:18.574Z,10.23
2022-10-04T08:19:54.428Z,8.50
2022-10-04T08:22:35.058Z,10.02
2022-10-04T08:25:09.658Z,8.60
2022-10-04T08:28:13.748Z,9.68
2022-10-04T08:30:56.352Z,8.93
2022-10-04T08:33:32.141Z,12.07
2022-10-04T08:38:51.602Z,10.68
2022-10-04T08:42:01.859Z,9.48
2022-10-04T08:44:56.817Z,9.60
2022-10-04T08:48:00.360Z,12.57
2022-10-04T08:52:25.487Z,8.90
2022-10-04T08:55:34.965Z,9.70
2022-10-04T08:58:14.182Z,10.10
2022-10-04T09:00:55.864Z,9.97
2022-10-04T09:04:01.746Z,8.88
2022-10-04T09:06:41.882Z,8.52
2022-10-04T09:09:53.765Z,10.55
2022-10-04T09:12:49.351Z,9.82
2022-10-04T09:15:27.404Z,9.63
2022-10-04T09:17:56.478Z,7.55
2022-10-04T09:20:38.935Z,9.07
2022-10-04T09:23:13.744Z,8.63
2022-10-04T09:25:49.981Z,8.85
2022-10-04T09:28:40.578Z,9.57
2022-10-04T09:31:27.789Z,8.93
2022-10-04T09:34:12.212Z,10.82
2022-10-04T09:37:00.580Z,9.30
2022-10-04T09:39:58.976Z,9.27
2022-10-04T09:42:39.343Z,9.20
2022-10-04T09:45:25.188Z,8.80
2022-10-04T09:48:04.014Z,8.63
2022-10-04T09:51:05.564Z,9.02
2022-10-04T09:53:52.859Z,9.48
2022-10-04T09:56:34.280Z,8.85
2022-10-04T09:59:37.590Z,8.60
2022-10-04T10:02:38.730Z,8.57
2022-10-04T10:05:23.776Z,9.87
2022-10-04T10:07:53.867Z,9.02
2022-10-04T10:10:45.315Z,8.75
2022-10-04T10:13:40.639Z,7.25
2022-10-04T10:16:21.270Z,9.15
2022-10-04T10:18:59.066Z,8.20
2022-10-04T10:21:46.200Z,7.45
2022-10-04T10:24:31.483Z,7.35
2022-10-04T10:27:07.803Z,8.90
2022-10-04T10:30:05.208Z,7.95
2022-10-04T10:33:04.246Z,7.03
2022-10-04T10:35:43.634Z,7.53
2022-10-04T10:38:28.169Z,8.63
2022-10-04T10:41:10.169Z,7.67
2022-10-04T10:44:02.376Z,6.85
2022-10-04T10:46:43.972Z,7.55
2022-10-04T10:49:24.222Z,5.90
2022-10-04T10:52:20.160Z,5.45
2022-10-04T10:55:07.842Z,7.00
2022-10-04T10:57:53.963Z,7.25
2022-10-04T11:00:22.599Z,7.77
2022-10-04T11:03:32.266Z,7.15
2022-10-04T11:06:15.822Z,5.73
2022-10-04T11:09:15.697Z,7.27
2022-10-04T11:12:05.061Z,7.95
2022-10-04T11:14:51.590Z,7.88
2022-10-04T11:17:25.682Z,6.40
2022-10-04T11:20:24.819Z,8.30
2022-10-04T11:23:15.820Z,8.70
2022-10-04T11:25:57.498Z,10.95
2022-10-04T11:28:33.069Z,10.75
2022-10-04T11:31:30.268Z,8.80
2022-10-04T11:34:18.482Z,9.77
2022-10-04T11:36:55.094Z,8.32
2022-10-04T11:39:55.206Z,8.95
2022-10-04T11:42:30.306Z,10.13
2022-10-04T11:45:20.759Z,8.75
2022-10-04T11:47:59.850Z,9.30
2022-10-04T11:50:51.310Z,11.48
2022-10-04T11:53:42.670Z,8.40
2022-10-04T12:12:39.027Z,9.77
